sensor_id;sensor_type;location;lat;lon;timestamp;pressure;altitude;pressure_sealevel;temperature;humidity
57250;BME280;43102;52.014;-0.680;2023-07-16T00:00:00;99332;;;17.49;69.13
57250;BME280;43102;52.014;-0.680;2023-07-16T00:01:00;99332;;;17.49;69.13
57250;BME280;43102;52.014;-0.680;2023-07-16T00:02:00;99335;;;17.47;68.95
57250;BME280;43102;52.014;-0.680;2023-07-16T00:03:00;99335;;;17.47;68.95
57250;BME280;43102;52.014;-0.680;2023-07-16T00:04:00;99335;;;17.47;68.95
57250;BME280;43102;52.014;-0.680;2023-07-16T00:05:00;99335;;;17.47;68.95
57250;BME280;43102;52.014;-0.680;2023-07-16T00:06:00;99335;;;17.47;68.95
57250;BME280;43102;52.014;-0.680;2023-07-16T00:07:00;99330;;;17.33;69.09
57250;BME280;43102;52.014;-0.680;2023-07-16T00:08:00;99330;;;17.33;69.09
57250;BME280;43102;52.014;-0.680;2023-07-16T00:09:00;99330;;;17.33;69.09
57250;BME280;43102;52.014;-0.680;2023-07-16T00:10:00;99330;;;17.33;69.09
57250;BME280;43102;52.014;-0.680;2023-07-16T00:11:00;99330;;;17.33;69.09
57250;BME280;43102;52.014;-0.680;2023-07-16T00:12:00;99339;;;17.28;69.13
57250;BME280;43102;52.014;-0.680;2023-07-16T00:13:00;99339;;;17.28;69.13
57250;BME280;43102;52.014;-0.680;2023-07-16T00:14:00;99339;;;17.28;69.13
57250;BME280;43102;52.014;-0.680;2023-07-16T00:15:00;99339;;;17.28;69.13
57250;BME280;43102;52.014;-0.680;2023-07-16T00:16:00;99339;;;17.28;69.13
57250;BME280;43102;52.014;-0.680;2023-07-16T00:17:00;99334;;;17.41;68.41
57250;BME280;43102;52.014;-0.680;2023-07-16T00:18:00;99334;;;17.41;68.41
57250;BME280;43102;52.014;-0.680;2023-07-16T00:19:00;99334;;;17.41;68.41
57250;BME280;43102;52.014;-0.680;2023-07-16T00:20:00;99334;;;17.41;68.41
57250;BME280;43102;52.014;-0.680;2023-07-16T00:21:00;99334;;;17.41;68.41
57250;BME280;43102;52.014;-0.680;2023-07-16T00:22:00;99337;;;17.37;68.46
57250;BME280;43102;52.014;-0.680;2023-07-16T00:23:00;99337;;;17.37;68.46
57250;BME280;43102;52.014;-0.680;2023-07-16T00:24:00;99337;;;17.37;68.46
57250;BME280;43102;52.014;-0.680;2023-07-16T00:25:00;99337;;;17.37;68.46
57250;BME280;43102;52.014;-0.680;2023-07-16T00:26:00;99337;;;17.37;68.46
57250;BME280;43102;52.014;-0.680;2023-07-16T00:27:00;99344;;;17.25;70.02
57250;BME280;43102;52.014;-0.680;2023-07-16T00:28:00;99344;;;17.25;70.02
57250;BME280;43102;52.014;-0.680;2023-07-16T00:29:00;99344;;;17.25;70.02
57250;BME280;43102;52.014;-0.680;2023-07-16T00:30:00;99344;;;17.25;70.02
57250;BME280;43102;52.014;-0.680;2023-07-16T00:31:00;99344;;;17.25;70.02
57250;BME280;43102;52.014;-0.680;2023-07-16T00:32:00;99346;;;17.25;70.41
57250;BME280;43102;52.014;-0.680;2023-07-16T00:33:00;99346;;;17.25;70.41
57250;BME280;43102;52.014;-0.680;2023-07-16T00:34:00;99346;;;17.25;70.41
57250;BME280;43102;52.014;-0.680;2023-07-16T00:35:01;99346;;;17.25;70.41
57250;BME280;43102;52.014;-0.680;2023-07-16T00:36:01;99346;;;17.25;70.41
57250;BME280;43102;52.014;-0.680;2023-07-16T00:37:00;99357;;;17.20;70.70
57250;BME280;43102;52.014;-0.680;2023-07-16T00:38:00;99357;;;17.20;70.70
57250;BME280;43102;52.014;-0.680;2023-07-16T00:39:00;99357;;;17.20;70.70
57250;BME280;43102;52.014;-0.680;2023-07-16T00:40:00;99357;;;17.20;70.70
57250;BME280;43102;52.014;-0.680;2023-07-16T00:41:00;99357;;;17.20;70.70
57250;BME280;43102;52.014;-0.680;2023-07-16T00:42:00;99361;;;17.25;70.01
57250;BME280;43102;52.014;-0.680;2023-07-16T00:43:00;99361;;;17.25;70.01
57250;BME280;43102;52.014;-0.680;2023-07-16T00:44:00;99361;;;17.25;70.01
57250;BME280;43102;52.014;-0.680;2023-07-16T00:45:00;99361;;;17.25;70.01
57250;BME280;43102;52.014;-0.680;2023-07-16T00:46:00;99361;;;17.25;70.01
57250;BME280;43102;52.014;-0.680;2023-07-16T00:47:00;99367;;;17.20;70.23
57250;BME280;43102;52.014;-0.680;2023-07-16T00:48:00;99367;;;17.20;70.23
57250;BME280;43102;52.014;-0.680;2023-07-16T00:49:00;99367;;;17.20;70.23
57250;BME280;43102;52.014;-0.680;2023-07-16T00:50:00;99367;;;17.20;70.23
57250;BME280;43102;52.014;-0.680;2023-07-16T00:51:01;99367;;;17.20;70.23
57250;BME280;43102;52.014;-0.680;2023-07-16T00:52:00;99371;;;17.21;70.11
57250;BME280;43102;52.014;-0.680;2023-07-16T00:53:01;99371;;;17.21;70.11
57250;BME280;43102;52.014;-0.680;2023-07-16T00:54:00;99371;;;17.21;70.11
57250;BME280;43102;52.014;-0.680;2023-07-16T00:55:00;99371;;;17.21;70.11
57250;BME280;43102;52.014;-0.680;2023-07-16T00:56:00;99371;;;17.21;70.11
57250;BME280;43102;52.014;-0.680;2023-07-16T00:57:00;99374;;;17.25;69.75
57250;BME280;43102;52.014;-0.680;2023-07-16T00:58:01;99374;;;17.25;69.75
57250;BME280;43102;52.014;-0.680;2023-07-16T00:59:00;99374;;;17.25;69.75
57250;BME280;43102;52.014;-0.680;2023-07-16T01:00:00;99374;;;17.25;69.75
57250;BME280;43102;52.014;-0.680;2023-07-16T01:01:00;99374;;;17.25;69.75
57250;BME280;43102;52.014;-0.680;2023-07-16T01:02:00;99383;;;17.20;69.79
57250;BME280;43102;52.014;-0.680;2023-07-16T01:03:01;99383;;;17.20;69.79
57250;BME280;43102;52.014;-0.680;2023-07-16T01:04:00;99383;;;17.20;69.79
57250;BME280;43102;52.014;-0.680;2023-07-16T01:05:00;99383;;;17.20;69.79
57250;BME280;43102;52.014;-0.680;2023-07-16T01:06:02;99383;;;17.20;69.79
57250;BME280;43102;52.014;-0.680;2023-07-16T01:07:01;99384;;;17.31;69.22
57250;BME280;43102;52.014;-0.680;2023-07-16T01:08:02;99384;;;17.31;69.22
57250;BME280;43102;52.014;-0.680;2023-07-16T01:09:02;99384;;;17.31;69.22
57250;BME280;43102;52.014;-0.680;2023-07-16T01:10:00;99384;;;17.31;69.22
57250;BME280;43102;52.014;-0.680;2023-07-16T01:11:01;99384;;;17.31;69.22
57250;BME280;43102;52.014;-0.680;2023-07-16T01:12:00;99401;;;17.27;69.35
57250;BME280;43102;52.014;-0.680;2023-07-16T01:13:00;99401;;;17.27;69.35
57250;BME280;43102;52.014;-0.680;2023-07-16T01:14:01;99401;;;17.27;69.35
57250;BME280;43102;52.014;-0.680;2023-07-16T01:15:00;99401;;;17.27;69.35
57250;BME280;43102;52.014;-0.680;2023-07-16T01:16:00;99401;;;17.27;69.35
57250;BME280;43102;52.014;-0.680;2023-07-16T01:17:07;99406;;;17.18;69.63
57250;BME280;43102;52.014;-0.680;2023-07-16T01:18:00;99406;;;17.18;69.63
57250;BME280;43102;52.014;-0.680;2023-07-16T01:19:00;99406;;;17.18;69.63
57250;BME280;43102;52.014;-0.680;2023-07-16T01:20:00;99406;;;17.18;69.63
57250;BME280;43102;52.014;-0.680;2023-07-16T01:21:00;99406;;;17.18;69.63
57250;BME280;43102;52.014;-0.680;2023-07-16T01:30:01;99419;;;17.10;69.61
57250;BME280;43102;52.014;-0.680;2023-07-16T01:31:00;99419;;;17.10;69.61
57250;BME280;43102;52.014;-0.680;2023-07-16T01:32:00;99420;;;17.17;69.45
57250;BME280;43102;52.014;-0.680;2023-07-16T01:33:00;99420;;;17.17;69.45
57250;BME280;43102;52.014;-0.680;2023-07-16T01:34:00;99420;;;17.17;69.45
57250;BME280;43102;52.014;-0.680;2023-07-16T01:35:00;99420;;;17.17;69.45
57250;BME280;43102;52.014;-0.680;2023-07-16T01:36:00;99420;;;17.17;69.45
57250;BME280;43102;52.014;-0.680;2023-07-16T01:37:01;99422;;;17.14;69.68
57250;BME280;43102;52.014;-0.680;2023-07-16T01:38:00;99422;;;17.14;69.68
57250;BME280;43102;52.014;-0.680;2023-07-16T01:39:00;99422;;;17.14;69.68
57250;BME280;43102;52.014;-0.680;2023-07-16T01:40:01;99422;;;17.14;69.68
57250;BME280;43102;52.014;-0.680;2023-07-16T01:41:00;99422;;;17.14;69.68
57250;BME280;43102;52.014;-0.680;2023-07-16T01:42:00;99428;;;17.16;69.41
57250;BME280;43102;52.014;-0.680;2023-07-16T01:43:00;99428;;;17.16;69.41
57250;BME280;43102;52.014;-0.680;2023-07-16T01:44:00;99428;;;17.16;69.41
57250;BME280;43102;52.014;-0.680;2023-07-16T01:45:00;99428;;;17.16;69.41
57250;BME280;43102;52.014;-0.680;2023-07-16T01:46:00;99428;;;17.16;69.41
57250;BME280;43102;52.014;-0.680;2023-07-16T01:47:04;99422;;;17.12;69.56
57250;BME280;43102;52.014;-0.680;2023-07-16T01:49:00;99422;;;17.12;69.56
57250;BME280;43102;52.014;-0.680;2023-07-16T01:50:00;99422;;;17.12;69.56
57250;BME280;43102;52.014;-0.680;2023-07-16T01:51:00;99422;;;17.12;69.56
57250;BME280;43102;52.014;-0.680;2023-07-16T01:52:01;99434;;;17.07;69.82
57250;BME280;43102;52.014;-0.680;2023-07-16T01:53:00;99434;;;17.07;69.82
57250;BME280;43102;52.014;-0.680;2023-07-16T01:54:00;99434;;;17.07;69.82
57250;BME280;43102;52.014;-0.680;2023-07-16T01:55:00;99434;;;17.07;69.82
57250;BME280;43102;52.014;-0.680;2023-07-16T01:56:00;99434;;;17.07;69.82
57250;BME280;43102;52.014;-0.680;2023-07-16T01:57:00;99431;;;17.15;69.46
57250;BME280;43102;52.014;-0.680;2023-07-16T01:58:00;99431;;;17.15;69.46
57250;BME280;43102;52.014;-0.680;2023-07-16T01:59:00;99431;;;17.15;69.46
57250;BME280;43102;52.014;-0.680;2023-07-16T02:00:00;99431;;;17.15;69.46
57250;BME280;43102;52.014;-0.680;2023-07-16T02:01:00;99431;;;17.15;69.46
57250;BME280;43102;52.014;-0.680;2023-07-16T02:02:00;99438;;;17.14;69.41
57250;BME280;43102;52.014;-0.680;2023-07-16T02:03:00;99438;;;17.14;69.41
57250;BME280;43102;52.014;-0.680;2023-07-16T02:04:00;99438;;;17.14;69.41
57250;BME280;43102;52.014;-0.680;2023-07-16T02:05:00;99438;;;17.14;69.41
57250;BME280;43102;52.014;-0.680;2023-07-16T02:06:00;99438;;;17.14;69.41
57250;BME280;43102;52.014;-0.680;2023-07-16T02:07:00;99437;;;17.07;69.39
57250;BME280;43102;52.014;-0.680;2023-07-16T02:08:00;99437;;;17.07;69.39
57250;BME280;43102;52.014;-0.680;2023-07-16T02:09:00;99437;;;17.07;69.39
57250;BME280;43102;52.014;-0.680;2023-07-16T02:10:00;99437;;;17.07;69.39
57250;BME280;43102;52.014;-0.680;2023-07-16T02:11:00;99437;;;17.07;69.39
57250;BME280;43102;52.014;-0.680;2023-07-16T02:12:00;99432;;;17.03;69.48
57250;BME280;43102;52.014;-0.680;2023-07-16T02:13:01;99432;;;17.03;69.48
57250;BME280;43102;52.014;-0.680;2023-07-16T02:14:00;99432;;;17.03;69.48
57250;BME280;43102;52.014;-0.680;2023-07-16T02:15:00;99432;;;17.03;69.48
57250;BME280;43102;52.014;-0.680;2023-07-16T02:16:00;99432;;;17.03;69.48
57250;BME280;43102;52.014;-0.680;2023-07-16T02:17:00;99436;;;17.01;69.57
57250;BME280;43102;52.014;-0.680;2023-07-16T02:18:00;99436;;;17.01;69.57
57250;BME280;43102;52.014;-0.680;2023-07-16T02:19:00;99436;;;17.01;69.57
57250;BME280;43102;52.014;-0.680;2023-07-16T02:20:00;99436;;;17.01;69.57
57250;BME280;43102;52.014;-0.680;2023-07-16T02:21:00;99436;;;17.01;69.57
57250;BME280;43102;52.014;-0.680;2023-07-16T02:22:00;99430;;;17.01;69.53
57250;BME280;43102;52.014;-0.680;2023-07-16T02:23:00;99430;;;17.01;69.53
57250;BME280;43102;52.014;-0.680;2023-07-16T02:24:00;99430;;;17.01;69.53
57250;BME280;43102;52.014;-0.680;2023-07-16T02:25:00;99430;;;17.01;69.53
57250;BME280;43102;52.014;-0.680;2023-07-16T02:26:00;99430;;;17.01;69.53
57250;BME280;43102;52.014;-0.680;2023-07-16T02:27:00;99438;;;16.88;69.96
57250;BME280;43102;52.014;-0.680;2023-07-16T02:28:00;99438;;;16.88;69.96
57250;BME280;43102;52.014;-0.680;2023-07-16T02:29:00;99438;;;16.88;69.96
57250;BME280;43102;52.014;-0.680;2023-07-16T02:30:00;99438;;;16.88;69.96
57250;BME280;43102;52.014;-0.680;2023-07-16T02:31:00;99438;;;16.88;69.96
57250;BME280;43102;52.014;-0.680;2023-07-16T02:32:00;99460;;;16.91;69.91
57250;BME280;43102;52.014;-0.680;2023-07-16T02:33:00;99460;;;16.91;69.91
57250;BME280;43102;52.014;-0.680;2023-07-16T02:34:00;99460;;;16.91;69.91
57250;BME280;43102;52.014;-0.680;2023-07-16T02:35:00;99460;;;16.91;69.91
57250;BME280;43102;52.014;-0.680;2023-07-16T02:36:00;99460;;;16.91;69.91
57250;BME280;43102;52.014;-0.680;2023-07-16T02:37:00;99464;;;16.95;69.50
57250;BME280;43102;52.014;-0.680;2023-07-16T02:38:00;99464;;;16.95;69.50
57250;BME280;43102;52.014;-0.680;2023-07-16T02:39:00;99464;;;16.95;69.50
57250;BME280;43102;52.014;-0.680;2023-07-16T02:40:00;99464;;;16.95;69.50
57250;BME280;43102;52.014;-0.680;2023-07-16T02:41:00;99464;;;16.95;69.50
57250;BME280;43102;52.014;-0.680;2023-07-16T02:42:00;99459;;;16.97;69.32
57250;BME280;43102;52.014;-0.680;2023-07-16T02:43:00;99459;;;16.97;69.32
57250;BME280;43102;52.014;-0.680;2023-07-16T02:44:01;99459;;;16.97;69.32
57250;BME280;43102;52.014;-0.680;2023-07-16T02:45:00;99459;;;16.97;69.32
57250;BME280;43102;52.014;-0.680;2023-07-16T02:46:00;99459;;;16.97;69.32
57250;BME280;43102;52.014;-0.680;2023-07-16T02:47:00;99465;;;17.03;68.92
57250;BME280;43102;52.014;-0.680;2023-07-16T02:48:00;99465;;;17.03;68.92
57250;BME280;43102;52.014;-0.680;2023-07-16T02:49:02;99465;;;17.03;68.92
57250;BME280;43102;52.014;-0.680;2023-07-16T02:50:00;99465;;;17.03;68.92
57250;BME280;43102;52.014;-0.680;2023-07-16T02:51:00;99465;;;17.03;68.92
57250;BME280;43102;52.014;-0.680;2023-07-16T02:52:00;99481;;;16.99;68.75
57250;BME280;43102;52.014;-0.680;2023-07-16T02:53:00;99481;;;16.99;68.75
57250;BME280;43102;52.014;-0.680;2023-07-16T02:54:00;99481;;;16.99;68.75
57250;BME280;43102;52.014;-0.680;2023-07-16T02:55:00;99481;;;16.99;68.75
57250;BME280;43102;52.014;-0.680;2023-07-16T02:56:00;99481;;;16.99;68.75
57250;BME280;43102;52.014;-0.680;2023-07-16T02:57:00;99482;;;17.04;68.42
57250;BME280;43102;52.014;-0.680;2023-07-16T02:58:00;99482;;;17.04;68.42
57250;BME280;43102;52.014;-0.680;2023-07-16T02:59:00;99482;;;17.04;68.42
57250;BME280;43102;52.014;-0.680;2023-07-16T03:00:00;99482;;;17.04;68.42
57250;BME280;43102;52.014;-0.680;2023-07-16T03:01:00;99482;;;17.04;68.42
57250;BME280;43102;52.014;-0.680;2023-07-16T03:02:00;99487;;;17.01;68.41
57250;BME280;43102;52.014;-0.680;2023-07-16T03:03:00;99487;;;17.01;68.41
57250;BME280;43102;52.014;-0.680;2023-07-16T03:04:00;99487;;;17.01;68.41
57250;BME280;43102;52.014;-0.680;2023-07-16T03:05:00;99487;;;17.01;68.41
57250;BME280;43102;52.014;-0.680;2023-07-16T03:06:00;99487;;;17.01;68.41
57250;BME280;43102;52.014;-0.680;2023-07-16T03:07:00;99491;;;16.93;68.41
57250;BME280;43102;52.014;-0.680;2023-07-16T03:08:00;99491;;;16.93;68.41
57250;BME280;43102;52.014;-0.680;2023-07-16T03:09:00;99491;;;16.93;68.41
57250;BME280;43102;52.014;-0.680;2023-07-16T03:10:00;99491;;;16.93;68.41
57250;BME280;43102;52.014;-0.680;2023-07-16T03:11:00;99491;;;16.93;68.41
57250;BME280;43102;52.014;-0.680;2023-07-16T03:12:00;99503;;;16.90;68.12
57250;BME280;43102;52.014;-0.680;2023-07-16T03:13:00;99503;;;16.90;68.12
57250;BME280;43102;52.014;-0.680;2023-07-16T03:14:00;99503;;;16.90;68.12
57250;BME280;43102;52.014;-0.680;2023-07-16T03:15:00;99503;;;16.90;68.12
57250;BME280;43102;52.014;-0.680;2023-07-16T03:16:00;99503;;;16.90;68.12
57250;BME280;43102;52.014;-0.680;2023-07-16T03:17:00;99504;;;16.77;68.22
57250;BME280;43102;52.014;-0.680;2023-07-16T03:18:00;99504;;;16.77;68.22
57250;BME280;43102;52.014;-0.680;2023-07-16T03:19:00;99504;;;16.77;68.22
57250;BME280;43102;52.014;-0.680;2023-07-16T03:20:00;99504;;;16.77;68.22
57250;BME280;43102;52.014;-0.680;2023-07-16T03:21:00;99504;;;16.77;68.22
57250;BME280;43102;52.014;-0.680;2023-07-16T03:22:00;99516;;;16.74;68.20
57250;BME280;43102;52.014;-0.680;2023-07-16T03:23:00;99516;;;16.74;68.20
57250;BME280;43102;52.014;-0.680;2023-07-16T03:24:00;99516;;;16.74;68.20
57250;BME280;43102;52.014;-0.680;2023-07-16T03:25:00;99516;;;16.74;68.20
57250;BME280;43102;52.014;-0.680;2023-07-16T03:26:00;99516;;;16.74;68.20
57250;BME280;43102;52.014;-0.680;2023-07-16T03:27:00;99531;;;16.73;68.33
57250;BME280;43102;52.014;-0.680;2023-07-16T03:28:00;99531;;;16.73;68.33
57250;BME280;43102;52.014;-0.680;2023-07-16T03:29:00;99531;;;16.73;68.33
57250;BME280;43102;52.014;-0.680;2023-07-16T03:30:00;99531;;;16.73;68.33
57250;BME280;43102;52.014;-0.680;2023-07-16T03:31:01;99531;;;16.73;68.33
57250;BME280;43102;52.014;-0.680;2023-07-16T03:32:00;99534;;;16.73;68.20
57250;BME280;43102;52.014;-0.680;2023-07-16T03:33:00;99534;;;16.73;68.20
57250;BME280;43102;52.014;-0.680;2023-07-16T03:34:00;99534;;;16.73;68.20
57250;BME280;43102;52.014;-0.680;2023-07-16T03:35:00;99534;;;16.73;68.20
57250;BME280;43102;52.014;-0.680;2023-07-16T03:36:00;99534;;;16.73;68.20
57250;BME280;43102;52.014;-0.680;2023-07-16T03:37:00;99544;;;16.69;68.24
57250;BME280;43102;52.014;-0.680;2023-07-16T03:38:00;99544;;;16.69;68.24
57250;BME280;43102;52.014;-0.680;2023-07-16T03:39:00;99544;;;16.69;68.24
57250;BME280;43102;52.014;-0.680;2023-07-16T03:40:12;99544;;;16.69;68.24
57250;BME280;43102;52.014;-0.680;2023-07-16T03:41:00;99544;;;16.69;68.24
57250;BME280;43102;52.014;-0.680;2023-07-16T03:42:00;99558;;;16.64;68.26
57250;BME280;43102;52.014;-0.680;2023-07-16T03:43:00;99558;;;16.64;68.26
57250;BME280;43102;52.014;-0.680;2023-07-16T03:44:00;99558;;;16.64;68.26
57250;BME280;43102;52.014;-0.680;2023-07-16T03:45:00;99558;;;16.64;68.26
57250;BME280;43102;52.014;-0.680;2023-07-16T03:46:00;99558;;;16.64;68.26
57250;BME280;43102;52.014;-0.680;2023-07-16T03:47:00;99561;;;16.66;68.02
57250;BME280;43102;52.014;-0.680;2023-07-16T03:48:00;99561;;;16.66;68.02
57250;BME280;43102;52.014;-0.680;2023-07-16T03:49:00;99561;;;16.66;68.02
57250;BME280;43102;52.014;-0.680;2023-07-16T03:50:00;99561;;;16.66;68.02
57250;BME280;43102;52.014;-0.680;2023-07-16T03:51:00;99561;;;16.66;68.02
57250;BME280;43102;52.014;-0.680;2023-07-16T03:52:00;99562;;;16.54;68.23
57250;BME280;43102;52.014;-0.680;2023-07-16T03:53:00;99562;;;16.54;68.23
57250;BME280;43102;52.014;-0.680;2023-07-16T03:54:00;99562;;;16.54;68.23
57250;BME280;43102;52.014;-0.680;2023-07-16T03:55:00;99562;;;16.54;68.23
57250;BME280;43102;52.014;-0.680;2023-07-16T03:56:00;99562;;;16.54;68.23
57250;BME280;43102;52.014;-0.680;2023-07-16T03:57:00;99570;;;16.51;68.14
57250;BME280;43102;52.014;-0.680;2023-07-16T03:58:00;99570;;;16.51;68.14
57250;BME280;43102;52.014;-0.680;2023-07-16T03:59:00;99570;;;16.51;68.14
57250;BME280;43102;52.014;-0.680;2023-07-16T04:00:01;99570;;;16.51;68.14
57250;BME280;43102;52.014;-0.680;2023-07-16T04:01:00;99570;;;16.51;68.14
57250;BME280;43102;52.014;-0.680;2023-07-16T04:02:00;99578;;;16.44;68.29
57250;BME280;43102;52.014;-0.680;2023-07-16T04:03:00;99578;;;16.44;68.29
57250;BME280;43102;52.014;-0.680;2023-07-16T04:04:00;99578;;;16.44;68.29
57250;BME280;43102;52.014;-0.680;2023-07-16T04:05:00;99578;;;16.44;68.29
57250;BME280;43102;52.014;-0.680;2023-07-16T04:06:04;99578;;;16.44;68.29
57250;BME280;43102;52.014;-0.680;2023-07-16T04:07:00;99580;;;16.43;68.29
57250;BME280;43102;52.014;-0.680;2023-07-16T04:08:00;99580;;;16.43;68.29
57250;BME280;43102;52.014;-0.680;2023-07-16T04:09:00;99580;;;16.43;68.29
57250;BME280;43102;52.014;-0.680;2023-07-16T04:10:00;99580;;;16.43;68.29
57250;BME280;43102;52.014;-0.680;2023-07-16T04:11:00;99580;;;16.43;68.29
57250;BME280;43102;52.014;-0.680;2023-07-16T04:12:00;99592;;;16.37;68.27
57250;BME280;43102;52.014;-0.680;2023-07-16T04:13:00;99592;;;16.37;68.27
57250;BME280;43102;52.014;-0.680;2023-07-16T04:14:00;99592;;;16.37;68.27
57250;BME280;43102;52.014;-0.680;2023-07-16T04:15:00;99592;;;16.37;68.27
57250;BME280;43102;52.014;-0.680;2023-07-16T04:16:00;99592;;;16.37;68.27
57250;BME280;43102;52.014;-0.680;2023-07-16T04:17:00;99596;;;16.31;68.45
57250;BME280;43102;52.014;-0.680;2023-07-16T04:18:00;99596;;;16.31;68.45
57250;BME280;43102;52.014;-0.680;2023-07-16T04:19:00;99596;;;16.31;68.45
57250;BME280;43102;52.014;-0.680;2023-07-16T04:20:00;99596;;;16.31;68.45
57250;BME280;43102;52.014;-0.680;2023-07-16T04:21:00;99596;;;16.31;68.45
57250;BME280;43102;52.014;-0.680;2023-07-16T04:22:00;99593;;;16.21;68.68
57250;BME280;43102;52.014;-0.680;2023-07-16T04:23:00;99593;;;16.21;68.68
57250;BME280;43102;52.014;-0.680;2023-07-16T04:24:01;99593;;;16.21;68.68
57250;BME280;43102;52.014;-0.680;2023-07-16T04:25:00;99593;;;16.21;68.68
57250;BME280;43102;52.014;-0.680;2023-07-16T04:26:00;99593;;;16.21;68.68
57250;BME280;43102;52.014;-0.680;2023-07-16T04:27:00;99601;;;16.22;68.48
57250;BME280;43102;52.014;-0.680;2023-07-16T04:28:00;99601;;;16.22;68.48
57250;BME280;43102;52.014;-0.680;2023-07-16T04:29:00;99601;;;16.22;68.48
57250;BME280;43102;52.014;-0.680;2023-07-16T04:30:00;99601;;;16.22;68.48
57250;BME280;43102;52.014;-0.680;2023-07-16T04:31:00;99601;;;16.22;68.48
57250;BME280;43102;52.014;-0.680;2023-07-16T04:32:00;99603;;;16.12;68.98
57250;BME280;43102;52.014;-0.680;2023-07-16T04:33:00;99603;;;16.12;68.98
57250;BME280;43102;52.014;-0.680;2023-07-16T04:34:00;99603;;;16.12;68.98
57250;BME280;43102;52.014;-0.680;2023-07-16T04:35:00;99603;;;16.12;68.98
57250;BME280;43102;52.014;-0.680;2023-07-16T04:36:00;99603;;;16.12;68.98
57250;BME280;43102;52.014;-0.680;2023-07-16T04:37:00;99603;;;16.12;68.87
57250;BME280;43102;52.014;-0.680;2023-07-16T04:38:00;99603;;;16.12;68.87
57250;BME280;43102;52.014;-0.680;2023-07-16T04:39:00;99603;;;16.12;68.87
57250;BME280;43102;52.014;-0.680;2023-07-16T04:40:00;99603;;;16.12;68.87
57250;BME280;43102;52.014;-0.680;2023-07-16T04:41:00;99603;;;16.12;68.87
57250;BME280;43102;52.014;-0.680;2023-07-16T04:42:00;99620;;;16.09;68.88
57250;BME280;43102;52.014;-0.680;2023-07-16T04:43:00;99620;;;16.09;68.88
57250;BME280;43102;52.014;-0.680;2023-07-16T04:44:00;99620;;;16.09;68.88
57250;BME280;43102;52.014;-0.680;2023-07-16T04:45:00;99620;;;16.09;68.88
57250;BME280;43102;52.014;-0.680;2023-07-16T04:46:00;99620;;;16.09;68.88
57250;BME280;43102;52.014;-0.680;2023-07-16T04:47:00;99619;;;16.06;68.99
57250;BME280;43102;52.014;-0.680;2023-07-16T04:48:00;99619;;;16.06;68.99
57250;BME280;43102;52.014;-0.680;2023-07-16T04:49:01;99619;;;16.06;68.99
57250;BME280;43102;52.014;-0.680;2023-07-16T04:50:00;99619;;;16.06;68.99
57250;BME280;43102;52.014;-0.680;2023-07-16T04:51:00;99619;;;16.06;68.99
57250;BME280;43102;52.014;-0.680;2023-07-16T04:52:00;99630;;;16.10;68.76
57250;BME280;43102;52.014;-0.680;2023-07-16T04:53:00;99630;;;16.10;68.76
57250;BME280;43102;52.014;-0.680;2023-07-16T04:54:00;99630;;;16.10;68.76
57250;BME280;43102;52.014;-0.680;2023-07-16T04:55:00;99630;;;16.10;68.76
57250;BME280;43102;52.014;-0.680;2023-07-16T04:56:00;99630;;;16.10;68.76
57250;BME280;43102;52.014;-0.680;2023-07-16T04:57:00;99636;;;16.05;69.05
57250;BME280;43102;52.014;-0.680;2023-07-16T04:58:00;99636;;;16.05;69.05
57250;BME280;43102;52.014;-0.680;2023-07-16T04:59:00;99636;;;16.05;69.05
57250;BME280;43102;52.014;-0.680;2023-07-16T05:00:00;99636;;;16.05;69.05
57250;BME280;43102;52.014;-0.680;2023-07-16T05:01:00;99636;;;16.05;69.05
57250;BME280;43102;52.014;-0.680;2023-07-16T05:02:02;99643;;;16.06;69.00
57250;BME280;43102;52.014;-0.680;2023-07-16T05:03:00;99643;;;16.06;69.00
57250;BME280;43102;52.014;-0.680;2023-07-16T05:04:00;99643;;;16.06;69.00
57250;BME280;43102;52.014;-0.680;2023-07-16T05:05:00;99643;;;16.06;69.00
57250;BME280;43102;52.014;-0.680;2023-07-16T05:06:00;99643;;;16.06;69.00
57250;BME280;43102;52.014;-0.680;2023-07-16T05:07:01;99654;;;16.13;68.70
57250;BME280;43102;52.014;-0.680;2023-07-16T05:08:00;99654;;;16.13;68.70
57250;BME280;43102;52.014;-0.680;2023-07-16T05:09:00;99654;;;16.13;68.70
57250;BME280;43102;52.014;-0.680;2023-07-16T05:10:01;99654;;;16.13;68.70
57250;BME280;43102;52.014;-0.680;2023-07-16T05:11:01;99654;;;16.13;68.70
57250;BME280;43102;52.014;-0.680;2023-07-16T05:12:00;99664;;;16.13;68.91
57250;BME280;43102;52.014;-0.680;2023-07-16T05:13:00;99664;;;16.13;68.91
57250;BME280;43102;52.014;-0.680;2023-07-16T05:14:00;99664;;;16.13;68.91
57250;BME280;43102;52.014;-0.680;2023-07-16T05:15:00;99664;;;16.13;68.91
57250;BME280;43102;52.014;-0.680;2023-07-16T05:16:00;99664;;;16.13;68.91
57250;BME280;43102;52.014;-0.680;2023-07-16T05:17:00;99666;;;16.13;68.93
57250;BME280;43102;52.014;-0.680;2023-07-16T05:18:00;99666;;;16.13;68.93
57250;BME280;43102;52.014;-0.680;2023-07-16T05:19:00;99666;;;16.13;68.93
57250;BME280;43102;52.014;-0.680;2023-07-16T05:20:00;99666;;;16.13;68.93
57250;BME280;43102;52.014;-0.680;2023-07-16T05:21:00;99666;;;16.13;68.93
57250;BME280;43102;52.014;-0.680;2023-07-16T05:22:00;99674;;;16.14;68.93
57250;BME280;43102;52.014;-0.680;2023-07-16T05:23:00;99674;;;16.14;68.93
57250;BME280;43102;52.014;-0.680;2023-07-16T05:24:00;99674;;;16.14;68.93
57250;BME280;43102;52.014;-0.680;2023-07-16T05:25:00;99674;;;16.14;68.93
57250;BME280;43102;52.014;-0.680;2023-07-16T05:26:00;99674;;;16.14;68.93
57250;BME280;43102;52.014;-0.680;2023-07-16T05:27:00;99677;;;16.13;68.98
57250;BME280;43102;52.014;-0.680;2023-07-16T05:28:00;99677;;;16.13;68.98
57250;BME280;43102;52.014;-0.680;2023-07-16T05:29:00;99677;;;16.13;68.98
57250;BME280;43102;52.014;-0.680;2023-07-16T05:30:00;99677;;;16.13;68.98
57250;BME280;43102;52.014;-0.680;2023-07-16T05:31:00;99677;;;16.13;68.98
57250;BME280;43102;52.014;-0.680;2023-07-16T05:32:00;99686;;;16.17;68.92
57250;BME280;43102;52.014;-0.680;2023-07-16T05:33:00;99686;;;16.17;68.92
57250;BME280;43102;52.014;-0.680;2023-07-16T05:34:00;99686;;;16.17;68.92
57250;BME280;43102;52.014;-0.680;2023-07-16T05:35:00;99686;;;16.17;68.92